sensor_id;sensor_type;location;lat;lon;timestamp;temperature;humidity
31661;DHT22;18267;52.234;7.444;2024-02-26T00:02:00;5.80;99.90
31661;DHT22;18267;52.234;7.444;2024-02-26T00:04:26;5.80;99.90
31661;DHT22;18267;52.234;7.444;2024-02-26T00:06:51;5.80;99.90
31661;DHT22;18267;52.234;7.444;2024-02-26T00:09:19;5.70;99.90
31661;DHT22;18267;52.234;7.444;2024-02-26T00:11:45;5.60;99.90
31661;DHT22;18267;52.234;7.444;2024-02-26T00:14:10;5.60;99.90
31661;DHT22;18267;52.234;7.444;2024-02-26T00:16:36;5.50;99.90
31661;DHT22;18267;52.234;7.444;2024-02-26T00:19:01;5.60;99.90
31661;DHT22;18267;52.234;7.444;2024-02-26T00:21:28;5.70;99.90
31661;DHT22;18267;52.234;7.444;2024-02-26T00:23:53;5.60;99.90
31661;DHT22;18267;52.234;7.444;2024-02-26T00:26:19;5.50;99.90
31661;DHT22;18267;52.234;7.444;2024-02-26T00:28:44;5.40;99.90
31661;DHT22;18267;52.234;7.444;2024-02-26T00:31:10;5.30;99.90
31661;DHT22;18267;52.234;7.444;2024-02-26T00:33:36;5.40;99.90
31661;DHT22;18267;52.234;7.444;2024-02-26T00:36:01;5.50;99.90
31661;DHT22;18267;52.234;7.444;2024-02-26T00:38:27;5.40;99.90
31661;DHT22;18267;52.234;7.444;2024-02-26T00:40:52;5.50;99.90
31661;DHT22;18267;52.234;7.444;2024-02-26T00:43:18;5.70;99.90
31661;DHT22;18267;52.234;7.444;2024-02-26T00:45:44;5.70;99.90
31661;DHT22;18267;52.234;7.444;2024-02-26T00:48:09;5.70;99.90
31661;DHT22;18267;52.234;7.444;2024-02-26T00:50:35;5.70;99.90
31661;DHT22;18267;52.234;7.444;2024-02-26T00:53:01;5.70;99.90
31661;DHT22;18267;52.234;7.444;2024-02-26T00:55:27;5.80;99.90
31661;DHT22;18267;52.234;7.444;2024-02-26T00:57:52;5.70;99.90
31661;DHT22;18267;52.234;7.444;2024-02-26T01:00:18;5.70;99.90
31661;DHT22;18267;52.234;7.444;2024-02-26T01:02:44;5.60;99.90
31661;DHT22;18267;52.234;7.444;2024-02-26T01:05:12;5.50;99.90
31661;DHT22;18267;52.234;7.444;2024-02-26T01:07:38;5.40;99.90
31661;DHT22;18267;52.234;7.444;2024-02-26T01:10:05;5.20;99.90
31661;DHT22;18267;52.234;7.444;2024-02-26T01:12:35;5.30;99.90
31661;DHT22;18267;52.234;7.444;2024-02-26T01:15:01;5.40;99.90
31661;DHT22;18267;52.234;7.444;2024-02-26T01:17:28;5.50;99.90
31661;DHT22;18267;52.234;7.444;2024-02-26T01:19:53;5.40;99.90
31661;DHT22;18267;52.234;7.444;2024-02-26T01:22:19;5.40;99.90
31661;DHT22;18267;52.234;7.444;2024-02-26T01:24:45;5.30;99.90
31661;DHT22;18267;52.234;7.444;2024-02-26T01:27:10;5.20;99.90
31661;DHT22;18267;52.234;7.444;2024-02-26T01:29:36;5.30;99.90
31661;DHT22;18267;52.234;7.444;2024-02-26T01:32:02;5.30;99.90
31661;DHT22;18267;52.234;7.444;2024-02-26T01:34:28;5.30;99.90
31661;DHT22;18267;52.234;7.444;2024-02-26T01:36:53;5.10;99.90
31661;DHT22;18267;52.234;7.444;2024-02-26T01:39:19;5.20;99.90
31661;DHT22;18267;52.234;7.444;2024-02-26T01:41:44;5.20;99.90
31661;DHT22;18267;52.234;7.444;2024-02-26T01:44:12;5.30;99.90
31661;DHT22;18267;52.234;7.444;2024-02-26T01:46:38;5.20;99.90
31661;DHT22;18267;52.234;7.444;2024-02-26T01:49:04;5.20;99.90
31661;DHT22;18267;52.234;7.444;2024-02-26T01:51:32;5.30;99.90
31661;DHT22;18267;52.234;7.444;2024-02-26T01:53:59;5.40;99.90
31661;DHT22;18267;52.234;7.444;2024-02-26T01:56:27;5.30;99.90
31661;DHT22;18267;52.234;7.444;2024-02-26T01:58:56;5.30;99.90
31661;DHT22;18267;52.234;7.444;2024-02-26T02:01:24;5.30;99.90
31661;DHT22;18267;52.234;7.444;2024-02-26T02:03:50;5.40;99.90
31661;DHT22;18267;52.234;7.444;2024-02-26T02:06:16;5.40;99.90
31661;DHT22;18267;52.234;7.444;2024-02-26T02:08:42;5.40;99.90
31661;DHT22;18267;52.234;7.444;2024-02-26T02:11:09;5.50;99.90
31661;DHT22;18267;52.234;7.444;2024-02-26T02:13:37;5.60;99.90
31661;DHT22;18267;52.234;7.444;2024-02-26T02:16:03;5.50;99.90
31661;DHT22;18267;52.234;7.444;2024-02-26T02:18:29;5.50;99.90
31661;DHT22;18267;52.234;7.444;2024-02-26T02:20:54;5.60;99.90
31661;DHT22;18267;52.234;7.444;2024-02-26T02:23:21;5.60;99.90
31661;DHT22;18267;52.234;7.444;2024-02-26T02:25:47;5.60;99.90
31661;DHT22;18267;52.234;7.444;2024-02-26T02:28:13;5.60;99.90
31661;DHT22;18267;52.234;7.444;2024-02-26T02:30:39;5.60;99.90
31661;DHT22;18267;52.234;7.444;2024-02-26T02:33:05;5.50;99.90
31661;DHT22;18267;52.234;7.444;2024-02-26T02:35:30;5.60;99.90
31661;DHT22;18267;52.234;7.444;2024-02-26T02:37:57;5.60;99.90
31661;DHT22;18267;52.234;7.444;2024-02-26T02:40:22;5.50;99.90
31661;DHT22;18267;52.234;7.444;2024-02-26T02:42:48;5.60;99.90
31661;DHT22;18267;52.234;7.444;2024-02-26T02:45:14;5.40;99.90
31661;DHT22;18267;52.234;7.444;2024-02-26T02:47:39;5.40;99.90
31661;DHT22;18267;52.234;7.444;2024-02-26T02:50:05;5.50;99.90
31661;DHT22;18267;52.234;7.444;2024-02-26T02:52:31;5.30;99.90
31661;DHT22;18267;52.234;7.444;2024-02-26T02:54:56;5.30;99.90
31661;DHT22;18267;52.234;7.444;2024-02-26T02:57:22;5.40;99.90
31661;DHT22;18267;52.234;7.444;2024-02-26T02:59:48;5.40;99.90
31661;DHT22;18267;52.234;7.444;2024-02-26T03:02:13;5.40;99.90
31661;DHT22;18267;52.234;7.444;2024-02-26T03:04:39;5.50;99.90
31661;DHT22;18267;52.234;7.444;2024-02-26T03:07:04;5.40;99.90
31661;DHT22;18267;52.234;7.444;2024-02-26T03:09:30;5.40;99.90
31661;DHT22;18267;52.234;7.444;2024-02-26T03:11:56;5.30;99.90
31661;DHT22;18267;52.234;7.444;2024-02-26T03:14:21;5.30;99.90
31661;DHT22;18267;52.234;7.444;2024-02-26T03:16:47;5.30;99.90
31661;DHT22;18267;52.234;7.444;2024-02-26T03:19:15;5.30;99.90
31661;DHT22;18267;52.234;7.444;2024-02-26T03:21:44;5.20;99.90
31661;DHT22;18267;52.234;7.444;2024-02-26T03:24:09;5.30;99.90
31661;DHT22;18267;52.234;7.444;2024-02-26T03:26:36;5.30;99.90
31661;DHT22;18267;52.234;7.444;2024-02-26T03:29:02;5.20;99.90
31661;DHT22;18267;52.234;7.444;2024-02-26T03:31:28;5.20;99.90
31661;DHT22;18267;52.234;7.444;2024-02-26T03:33:53;5.30;99.90
31661;DHT22;18267;52.234;7.444;2024-02-26T03:36:19;5.30;99.90
31661;DHT22;18267;52.234;7.444;2024-02-26T03:38:46;5.30;99.90
31661;DHT22;18267;52.234;7.444;2024-02-26T03:41:12;5.30;99.90
31661;DHT22;18267;52.234;7.444;2024-02-26T03:43:38;5.30;99.90
31661;DHT22;18267;52.234;7.444;2024-02-26T03:46:03;5.40;99.90
31661;DHT22;18267;52.234;7.444;2024-02-26T03:48:29;5.40;99.90
31661;DHT22;18267;52.234;7.444;2024-02-26T03:50:54;5.30;99.90
31661;DHT22;18267;52.234;7.444;2024-02-26T03:53:20;5.30;99.90
31661;DHT22;18267;52.234;7.444;2024-02-26T03:55:45;5.20;99.90
31661;DHT22;18267;52.234;7.444;2024-02-26T03:58:12;5.30;99.90
31661;DHT22;18267;52.234;7.444;2024-02-26T04:00:38;5.30;99.90
31661;DHT22;18267;52.234;7.444;2024-02-26T04:03:03;5.40;99.90
31661;DHT22;18267;52.234;7.444;2024-02-26T04:05:29;5.50;99.90
31661;DHT22;18267;52.234;7.444;2024-02-26T04:07:54;5.50;99.90
31661;DHT22;18267;52.234;7.444;2024-02-26T04:10:20;5.60;99.90
31661;DHT22;18267;52.234;7.444;2024-02-26T04:12:46;5.50;99.90
31661;DHT22;18267;52.234;7.444;2024-02-26T04:15:12;5.50;99.90
31661;DHT22;18267;52.234;7.444;2024-02-26T04:17:38;5.50;99.90
31661;DHT22;18267;52.234;7.444;2024-02-26T04:20:04;5.60;99.90
31661;DHT22;18267;52.234;7.444;2024-02-26T04:22:30;5.50;99.90
31661;DHT22;18267;52.234;7.444;2024-02-26T04:24:57;5.40;99.90
31661;DHT22;18267;52.234;7.444;2024-02-26T04:27:22;5.50;99.90
31661;DHT22;18267;52.234;7.444;2024-02-26T04:29:48;5.50;99.90
31661;DHT22;18267;52.234;7.444;2024-02-26T04:32:14;5.50;99.90
31661;DHT22;18267;52.234;7.444;2024-02-26T04:34:39;5.50;99.90
31661;DHT22;18267;52.234;7.444;2024-02-26T04:37:05;5.60;99.90
31661;DHT22;18267;52.234;7.444;2024-02-26T04:39:30;5.60;99.90
31661;DHT22;18267;52.234;7.444;2024-02-26T04:41:56;5.60;99.90
31661;DHT22;18267;52.234;7.444;2024-02-26T04:44:21;5.60;99.90
31661;DHT22;18267;52.234;7.444;2024-02-26T04:46:47;5.50;99.90
31661;DHT22;18267;52.234;7.444;2024-02-26T04:49:12;5.40;99.90
31661;DHT22;18267;52.234;7.444;2024-02-26T04:51:38;5.50;99.90
31661;DHT22;18267;52.234;7.444;2024-02-26T04:54:04;5.50;99.90
31661;DHT22;18267;52.234;7.444;2024-02-26T04:56:29;5.50;99.90
31661;DHT22;18267;52.234;7.444;2024-02-26T04:58:55;5.40;99.90
31661;DHT22;18267;52.234;7.444;2024-02-26T05:01:20;5.30;99.90
31661;DHT22;18267;52.234;7.444;2024-02-26T05:03:46;5.40;99.90
31661;DHT22;18267;52.234;7.444;2024-02-26T05:06:11;5.40;99.90
31661;DHT22;18267;52.234;7.444;2024-02-26T05:08:37;5.40;99.90
31661;DHT22;18267;52.234;7.444;2024-02-26T05:11:04;5.40;99.90
31661;DHT22;18267;52.234;7.444;2024-02-26T05:13:30;5.40;99.90
31661;DHT22;18267;52.234;7.444;2024-02-26T05:15:55;5.40;99.90
31661;DHT22;18267;52.234;7.444;2024-02-26T05:18:22;5.40;99.90
31661;DHT22;18267;52.234;7.444;2024-02-26T05:20:48;5.60;99.90
31661;DHT22;18267;52.234;7.444;2024-02-26T05:23:13;5.60;99.90
31661;DHT22;18267;52.234;7.444;2024-02-26T05:25:39;5.70;99.90
31661;DHT22;18267;52.234;7.444;2024-02-26T05:28:05;5.80;99.90
31661;DHT22;18267;52.234;7.444;2024-02-26T05:30:30;5.80;99.90
31661;DHT22;18267;52.234;7.444;2024-02-26T05:32:56;5.80;99.90
31661;DHT22;18267;52.234;7.444;2024-02-26T05:35:22;5.80;99.90
31661;DHT22;18267;52.234;7.444;2024-02-26T05:37:47;5.80;99.90
31661;DHT22;18267;52.234;7.444;2024-02-26T05:40:13;5.90;99.90
31661;DHT22;18267;52.234;7.444;2024-02-26T05:42:39;5.90;99.90
31661;DHT22;18267;52.234;7.444;2024-02-26T05:45:05;5.80;99.90
31661;DHT22;18267;52.234;7.444;2024-02-26T05:47:35;5.80;99.90
31661;DHT22;18267;52.234;7.444;2024-02-26T05:50:01;5.90;99.90
31661;DHT22;18267;52.234;7.444;2024-02-26T05:52:27;5.90;99.90
31661;DHT22;18267;52.234;7.444;2024-02-26T05:54:53;5.90;99.90
31661;DHT22;18267;52.234;7.444;2024-02-26T05:57:19;6.00;99.90
31661;DHT22;18267;52.234;7.444;2024-02-26T05:59:45;6.00;99.90
31661;DHT22;18267;52.234;7.444;2024-02-26T06:02:10;5.80;99.90
31661;DHT22;18267;52.234;7.444;2024-02-26T06:04:36;5.80;99.90
31661;DHT22;18267;52.234;7.444;2024-02-26T06:07:02;5.80;99.90
31661;DHT22;18267;52.234;7.444;2024-02-26T06:09:27;5.70;99.90
31661;DHT22;18267;52.234;7.444;2024-02-26T06:11:53;5.70;99.90
31661;DHT22;18267;52.234;7.444;2024-02-26T06:14:19;5.60;99.90
31661;DHT22;18267;52.234;7.444;2024-02-26T06:16:45;5.60;99.90
31661;DHT22;18267;52.234;7.444;2024-02-26T06:19:10;5.60;99.90
31661;DHT22;18267;52.234;7.444;2024-02-26T06:21:36;5.60;99.90
31661;DHT22;18267;52.234;7.444;2024-02-26T06:24:02;5.70;99.90
31661;DHT22;18267;52.234;7.444;2024-02-26T06:26:27;5.60;99.90
31661;DHT22;18267;52.234;7.444;2024-02-26T06:28:56;5.70;99.90
31661;DHT22;18267;52.234;7.444;2024-02-26T06:31:23;5.70;99.90
31661;DHT22;18267;52.234;7.444;2024-02-26T06:33:49;5.70;99.90
31661;DHT22;18267;52.234;7.444;2024-02-26T06:36:15;5.70;99.90
31661;DHT22;18267;52.234;7.444;2024-02-26T06:38:41;5.60;99.90
31661;DHT22;18267;52.234;7.444;2024-02-26T06:41:07;5.60;99.90
31661;DHT22;18267;52.234;7.444;2024-02-26T06:43:32;5.50;99.90
31661;DHT22;18267;52.234;7.444;2024-02-26T06:45:58;5.70;99.90
31661;DHT22;18267;52.234;7.444;2024-02-26T06:48:24;5.70;99.90
31661;DHT22;18267;52.234;7.444;2024-02-26T06:50:50;5.60;99.90
31661;DHT22;18267;52.234;7.444;2024-02-26T06:53:15;5.60;99.90
31661;DHT22;18267;52.234;7.444;2024-02-26T06:55:42;5.60;99.90
31661;DHT22;18267;52.234;7.444;2024-02-26T06:58:08;5.60;99.90
31661;DHT22;18267;52.234;7.444;2024-02-26T07:00:33;5.70;99.90
31661;DHT22;18267;52.234;7.444;2024-02-26T07:02:59;5.70;99.90
31661;DHT22;18267;52.234;7.444;2024-02-26T07:05:25;5.60;99.90
31661;DHT22;18267;52.234;7.444;2024-02-26T07:07:50;5.60;99.90
31661;DHT22;18267;52.234;7.444;2024-02-26T07:10:16;5.60;99.90
31661;DHT22;18267;52.234;7.444;2024-02-26T07:12:41;5.60;99.90
31661;DHT22;18267;52.234;7.444;2024-02-26T07:15:07;5.60;99.90
31661;DHT22;18267;52.234;7.444;2024-02-26T07:17:33;5.60;99.90
31661;DHT22;18267;52.234;7.444;2024-02-26T07:20:02;5.60;99.90
31661;DHT22;18267;52.234;7.444;2024-02-26T07:22:31;5.70;99.90
31661;DHT22;18267;52.234;7.444;2024-02-26T07:24:57;5.80;99.90
31661;DHT22;18267;52.234;7.444;2024-02-26T07:27:23;5.80;99.90
31661;DHT22;18267;52.234;7.444;2024-02-26T07:29:49;5.80;99.90
31661;DHT22;18267;52.234;7.444;2024-02-26T07:32:14;5.80;99.90
31661;DHT22;18267;52.234;7.444;2024-02-26T07:34:41;5.80;99.90
31661;DHT22;18267;52.234;7.444;2024-02-26T07:37:10;5.90;99.90
31661;DHT22;18267;52.234;7.444;2024-02-26T07:39:36;5.80;99.90
31661;DHT22;18267;52.234;7.444;2024-02-26T07:42:02;5.70;99.90
31661;DHT22;18267;52.234;7.444;2024-02-26T07:44:28;5.80;99.90
31661;DHT22;18267;52.234;7.444;2024-02-26T07:46:54;5.80;99.90
31661;DHT22;18267;52.234;7.444;2024-02-26T07:49:19;5.80;99.90
31661;DHT22;18267;52.234;7.444;2024-02-26T07:51:45;5.80;99.90
31661;DHT22;18267;52.234;7.444;2024-02-26T07:54:11;5.80;99.90
31661;DHT22;18267;52.234;7.444;2024-02-26T07:56:36;5.70;99.90
31661;DHT22;18267;52.234;7.444;2024-02-26T07:59:02;5.70;99.90
31661;DHT22;18267;52.234;7.444;2024-02-26T08:01:27;5.70;99.90
31661;DHT22;18267;52.234;7.444;2024-02-26T08:03:53;5.80;99.90
31661;DHT22;18267;52.234;7.444;2024-02-26T08:06:19;5.70;99.90
31661;DHT22;18267;52.234;7.444;2024-02-26T08:08:44;5.70;99.90
31661;DHT22;18267;52.234;7.444;2024-02-26T08:11:10;5.80;99.90
31661;DHT22;18267;52.234;7.444;2024-02-26T08:13:35;5.80;99.90
31661;DHT22;18267;52.234;7.444;2024-02-26T08:16:01;5.80;99.90
31661;DHT22;18267;52.234;7.444;2024-02-26T08:18:27;5.80;99.90
31661;DHT22;18267;52.234;7.444;2024-02-26T08:20:52;5.80;99.90
31661;DHT22;18267;52.234;7.444;2024-02-26T08:23:18;5.80;99.90
31661;DHT22;18267;52.234;7.444;2024-02-26T08:25:44;5.90;99.90
31661;DHT22;18267;52.234;7.444;2024-02-26T08:28:09;5.90;99.90
31661;DHT22;18267;52.234;7.444;2024-02-26T08:30:38;5.90;99.90
31661;DHT22;18267;52.234;7.444;2024-02-26T08:33:04;5.90;99.90
31661;DHT22;18267;52.234;7.444;2024-02-26T08:35:29;5.80;99.90
31661;DHT22;18267;52.234;7.444;2024-02-26T08:37:55;5.90;99.90
31661;DHT22;18267;52.234;7.444;2024-02-26T08:40:21;5.90;99.90
31661;DHT22;18267;52.234;7.444;2024-02-26T08:42:47;6.00;99.90
31661;DHT22;18267;52.234;7.444;2024-02-26T08:45:12;6.00;99.90
31661;DHT22;18267;52.234;7.444;2024-02-26T08:47:38;6.00;99.90
31661;DHT22;18267;52.234;7.444;2024-02-26T08:50:04;6.00;99.90
31661;DHT22;18267;52.234;7.444;2024-02-26T08:52:30;5.90;99.90
31661;DHT22;18267;52.234;7.444;2024-02-26T08:54:56;6.00;99.90
31661;DHT22;18267;52.234;7.444;2024-02-26T08:57:22;6.00;99.90
31661;DHT22;18267;52.234;7.444;2024-02-26T08:59:48;6.10;99.90
31661;DHT22;18267;52.234;7.444;2024-02-26T09:02:13;6.20;99.90
31661;DHT22;18267;52.234;7.444;2024-02-26T09:04:39;6.20;99.90
31661;DHT22;18267;52.234;7.444;2024-02-26T09:07:04;6.20;99.90
31661;DHT22;18267;52.234;7.444;2024-02-26T09:09:30;6.20;99.90
31661;DHT22;18267;52.234;7.444;2024-02-26T09:11:55;6.20;99.90
31661;DHT22;18267;52.234;7.444;2024-02-26T09:14:21;6.30;99.90
31661;DHT22;18267;52.234;7.444;2024-02-26T09:16:47;6.50;99.90
31661;DHT22;18267;52.234;7.444;2024-02-26T09:19:16;6.60;99.90
31661;DHT22;18267;52.234;7.444;2024-02-26T09:21:45;6.60;99.90
31661;DHT22;18267;52.234;7.444;2024-02-26T09:24:11;6.70;99.90
31661;DHT22;18267;52.234;7.444;2024-02-26T09:26:37;6.70;99.90
31661;DHT22;18267;52.234;7.444;2024-02-26T09:29:03;6.70;99.90
31661;DHT22;18267;52.234;7.444;2024-02-26T09:31:30;6.70;99.90
31661;DHT22;18267;52.234;7.444;2024-02-26T09:33:55;6.80;99.90
31661;DHT22;18267;52.234;7.444;2024-02-26T09:36:21;6.90;99.90
31661;DHT22;18267;52.234;7.444;2024-02-26T09:38:47;7.00;99.90
31661;DHT22;18267;52.234;7.444;2024-02-26T09:41:16;7.00;99.90
31661;DHT22;18267;52.234;7.444;2024-02-26T09:43:44;7.00;99.90
31661;DHT22;18267;52.234;7.444;2024-02-26T09:46:11;7.00;99.90
31661;DHT22;18267;52.234;7.444;2024-02-26T09:48:37;6.80;99.90
31661;DHT22;18267;52.234;7.444;2024-02-26T09:51:04;6.80;99.90
31661;DHT22;18267;52.234;7.444;2024-02-26T09:53:30;6.80;99.90
31661;DHT22;18267;52.234;7.444;2024-02-26T09:56:00;6.90;99.90
31661;DHT22;18267;52.234;7.444;2024-02-26T09:58:28;6.80;99.90
31661;DHT22;18267;52.234;7.444;2024-02-26T10:00:56;6.80;99.90
31661;DHT22;18267;52.234;7.444;2024-02-26T10:03:30;6.90;99.90
31661;DHT22;18267;52.234;7.444;2024-02-26T10:05:56;6.80;99.90
31661;DHT22;18267;52.234;7.444;2024-02-26T10:08:23;6.80;99.90
31661;DHT22;18267;52.234;7.444;2024-02-26T10:10:49;6.80;99.90
31661;DHT22;18267;52.234;7.444;2024-02-26T10:13:15;6.70;99.90
31661;DHT22;18267;52.234;7.444;2024-02-26T10:15:41;6.70;99.90
31661;DHT22;18267;52.234;7.444;2024-02-26T10:18:07;6.90;99.90
31661;DHT22;18267;52.234;7.444;2024-02-26T10:20:32;6.90;99.90
31661;DHT22;18267;52.234;7.444;2024-02-26T10:23:00;6.80;99.90
31661;DHT22;18267;52.234;7.444;2024-02-26T10:25:27;6.80;99.90
31661;DHT22;18267;52.234;7.444;2024-02-26T10:27:52;6.90;99.90
31661;DHT22;18267;52.234;7.444;2024-02-26T10:30:22;6.80;99.90
31661;DHT22;18267;52.234;7.444;2024-02-26T10:32:51;6.90;99.90
31661;DHT22;18267;52.234;7.444;2024-02-26T10:35:17;6.90;99.90
31661;DHT22;18267;52.234;7.444;2024-02-26T10:37:43;7.00;99.90
31661;DHT22;18267;52.234;7.444;2024-02-26T10:40:13;7.00;99.90
31661;DHT22;18267;52.234;7.444;2024-02-26T10:42:40;7.00;99.90
31661;DHT22;18267;52.234;7.444;2024-02-26T10:45:06;7.00;99.90
31661;DHT22;18267;52.234;7.444;2024-02-26T10:47:33;6.90;99.90
31661;DHT22;18267;52.234;7.444;2024-02-26T10:49:59;7.00;99.90
31661;DHT22;18267;52.234;7.444;2024-02-26T10:52:27;7.00;99.90
31661;DHT22;18267;52.234;7.444;2024-02-26T10:54:56;7.10;99.90
31661;DHT22;18267;52.234;7.444;2024-02-26T10:57:24;7.10;99.90
31661;DHT22;18267;52.234;7.444;2024-02-26T10:59:51;7.10;99.90
31661;DHT22;18267;52.234;7.444;2024-02-26T11:02:17;7.10;99.90
31661;DHT22;18267;52.234;7.444;2024-02-26T11:04:44;7.20;99.90
31661;DHT22;18267;52.234;7.444;2024-02-26T11:07:11;7.20;99.90
31661;DHT22;18267;52.234;7.444;2024-02-26T11:09:37;7.20;99.90
31661;DHT22;18267;52.234;7.444;2024-02-26T11:12:09;7.30;99.90
31661;DHT22;18267;52.234;7.444;2024-02-26T11:14:39;7.30;99.90
31661;DHT22;18267;52.234;7.444;2024-02-26T11:17:07;7.30;99.90
31661;DHT22;18267;52.234;7.444;2024-02-26T11:19:35;7.30;99.90
31661;DHT22;18267;52.234;7.444;2024-02-26T11:22:01;7.20;99.90
31661;DHT22;18267;52.234;7.444;2024-02-26T11:24:27;7.20;99.90
31661;DHT22;18267;52.234;7.444;2024-02-26T11:26:57;7.20;99.90
31661;DHT22;18267;52.234;7.444;2024-02-26T11:29:31;7.20;99.90
31661;DHT22;18267;52.234;7.444;2024-02-26T11:31:59;7.10;99.90
31661;DHT22;18267;52.234;7.444;2024-02-26T11:34:25;7.00;99.90
31661;DHT22;18267;52.234;7.444;2024-02-26T11:36:51;7.00;99.90
31661;DHT22;18267;52.234;7.444;2024-02-26T11:39:17;7.10;99.90
31661;DHT22;18267;52.234;7.444;2024-02-26T11:41:43;7.00;99.90
31661;DHT22;18267;52.234;7.444;2024-02-26T11:44:09;7.10;99.90
31661;DHT22;18267;52.234;7.444;2024-02-26T11:46:42;7.00;99.90
31661;DHT22;18267;52.234;7.444;2024-02-26T11:51:56;7.10;99.90
31661;DHT22;18267;52.234;7.444;2024-02-26T11:54:57;7.00;99.90
31661;DHT22;18267;52.234;7.444;2024-02-26T11:57:24;7.10;99.90
31661;DHT22;18267;52.234;7.444;2024-02-26T11:59:51;7.10;99.90
31661;DHT22;18267;52.234;7.444;2024-02-26T12:02:51;7.10;99.90
31661;DHT22;18267;52.234;7.444;2024-02-26T12:05:23;7.10;99.90
31661;DHT22;18267;52.234;7.444;2024-02-26T12:07:59;7.10;99.90
31661;DHT22;18267;52.234;7.444;2024-02-26T12:10:30;7.20;99.90
31661;DHT22;18267;52.234;7.444;2024-02-26T12:13:06;7.20;99.90
31661;DHT22;18267;52.234;7.444;2024-02-26T12:15:37;7.20;99.90
31661;DHT22;18267;52.234;7.444;2024-02-26T12:18:05;7.20;99.90
31661;DHT22;18267;52.234;7.444;2024-02-26T12:20:31;7.20;99.90
31661;DHT22;18267;52.234;7.444;2024-02-26T12:22:57;7.20;99.90
31661;DHT22;18267;52.234;7.444;2024-02-26T12:25:25;7.20;99.90
31661;DHT22;18267;52.234;7.444;2024-02-26T12:27:52;7.20;99.90
31661;DHT22;18267;52.234;7.444;2024-02-26T12:30:18;7.20;99.90
31661;DHT22;18267;52.234;7.444;2024-02-26T12:32:44;7.20;99.90
31661;DHT22;18267;52.234;7.444;2024-02-26T12:35:10;7.20;99.90
31661;DHT22;18267;52.234;7.444;2024-02-26T12:37:36;7.20;99.90
31661;DHT22;18267;52.234;7.444;2024-02-26T12:40:07;7.20;99.90
31661;DHT22;18267;52.234;7.444;2024-02-26T12:42:50;7.30;99.90
31661;DHT22;18267;52.234;7.444;2024-02-26T12:45:15;7.20;99.90
31661;DHT22;18267;52.234;7.444;2024-02-26T12:47:42;7.20;99.90
31661;DHT22;18267;52.234;7.444;2024-02-26T12:50:10;7.30;99.90
31661;DHT22;18267;52.234;7.444;2024-02-26T12:52:43;7.30;99.90
31661;DHT22;18267;52.234;7.444;2024-02-26T12:55:09;7.30;99.90
31661;DHT22;18267;52.234;7.444;2024-02-26T12:57:37;7.30;99.90
31661;DHT22;18267;52.234;7.444;2024-02-26T13:00:07;7.30;99.90
31661;DHT22;18267;52.234;7.444;2024-02-26T13:02:37;7.30;99.90
31661;DHT22;18267;52.234;7.444;2024-02-26T13:05:04;7.30;99.90
31661;DHT22;18267;52.234;7.444;2024-02-26T13:07:31;7.30;99.90
31661;DHT22;18267;52.234;7.444;2024-02-26T13:09:56;7.40;99.90
31661;DHT22;18267;52.234;7.444;2024-02-26T13:12:22;7.30;99.90
31661;DHT22;18267;52.234;7.444;2024-02-26T13:14:58;7.40;99.90
31661;DHT22;18267;52.234;7.444;2024-02-26T13:17:24;7.40;99.90
31661;DHT22;18267;52.234;7.444;2024-02-26T13:19:53;7.40;99.90
31661;DHT22;18267;52.234;7.444;2024-02-26T13:22:21;7.40;99.90
31661;DHT22;18267;52.234;7.444;2024-02-26T13:24:54;7.40;99.90
31661;DHT22;18267;52.234;7.444;2024-02-26T13:27:23;7.40;99.90
31661;DHT22;18267;52.234;7.444;2024-02-26T13:30:11;7.40;99.90
31661;DHT22;18267;52.234;7.444;2024-02-26T13:32:37;7.40;99.90
31661;DHT22;18267;52.234;7.444;2024-02-26T13:35:10;7.40;99.90
31661;DHT22;18267;52.234;7.444;2024-02-26T13:37:37;7.50;99.90
31661;DHT22;18267;52.234;7.444;2024-02-26T13:40:10;7.40;99.90
31661;DHT22;18267;52.234;7.444;2024-02-26T13:42:37;7.40;99.90
31661;DHT22;18267;52.234;7.444;2024-02-26T13:45:03;7.50;99.90
31661;DHT22;18267;52.234;7.444;2024-02-26T13:47:32;7.60;99.90
31661;DHT22;18267;52.234;7.444;2024-02-26T13:49:57;7.60;99.90
31661;DHT22;18267;52.234;7.444;2024-02-26T13:52:24;7.60;99.90
31661;DHT22;18267;52.234;7.444;2024-02-26T13:54:51;7.60;99.90
31661;DHT22;18267;52.234;7.444;2024-02-26T13:57:16;7.60;99.90
31661;DHT22;18267;52.234;7.444;2024-02-26T13:59:43;7.60;99.90
31661;DHT22;18267;52.234;7.444;2024-02-26T14:02:09;7.60;99.90
31661;DHT22;18267;52.234;7.444;2024-02-26T14:04:35;7.70;99.90
31661;DHT22;18267;52.234;7.444;2024-02-26T14:07:01;7.60;99.90
31661;DHT22;18267;52.234;7.444;2024-02-26T14:09:26;7.60;99.90
31661;DHT22;18267;52.234;7.444;2024-02-26T14:11:52;7.60;99.90
31661;DHT22;18267;52.234;7.444;2024-02-26T14:14:17;7.70;99.90
31661;DHT22;18267;52.234;7.444;2024-02-26T14:16:43;7.60;99.90
31661;DHT22;18267;52.234;7.444;2024-02-26T14:19:08;7.70;99.90
31661;DHT22;18267;52.234;7.444;2024-02-26T14:21:35;7.60;99.90
31661;DHT22;18267;52.234;7.444;2024-02-26T14:24:00;7.60;99.90
31661;DHT22;18267;52.234;7.444;2024-02-26T14:26:26;7.70;99.90
31661;DHT22;18267;52.234;7.444;2024-02-26T14:28:51;7.70;99.90
31661;DHT22;18267;52.234;7.444;2024-02-26T14:31:17;7.60;99.90
31661;DHT22;18267;52.234;7.444;2024-02-26T14:33:43;7.50;99.90
31661;DHT22;18267;52.234;7.444;2024-02-26T14:36:09;7.50;99.90
31661;DHT22;18267;52.234;7.444;2024-02-26T14:38:35;7.50;99.90
31661;DHT22;18267;52.234;7.444;2024-02-26T14:41:01;7.50;99.90
31661;DHT22;18267;52.234;7.444;2024-02-26T14:43:27;7.60;99.90
31661;DHT22;18267;52.234;7.444;2024-02-26T14:45:53;7.60;99.90
31661;DHT22;18267;52.234;7.444;2024-02-26T14:48:18;7.60;99.90
31661;DHT22;18267;52.234;7.444;2024-02-26T14:50:44;7.50;99.90
31661;DHT22;18267;52.234;7.444;2024-02-26T14:53:10;7.50;99.90
31661;DHT22;18267;52.234;7.444;2024-02-26T14:55:35;7.40;99.90
31661;DHT22;18267;52.234;7.444;2024-02-26T14:58:01;7.40;99.90
31661;DHT22;18267;52.234;7.444;2024-02-26T15:00:26;7.30;99.90
31661;DHT22;18267;52.234;7.444;2024-02-26T15:02:52;7.30;99.90
31661;DHT22;18267;52.234;7.444;2024-02-26T15:05:20;7.40;99.90
31661;DHT22;18267;52.234;7.444;2024-02-26T15:07:45;7.40;99.90
31661;DHT22;18267;52.234;7.444;2024-02-26T15:10:11;7.30;99.90
31661;DHT22;18267;52.234;7.444;2024-02-26T15:12:37;7.30;99.90
31661;DHT22;18267;52.234;7.444;2024-02-26T15:15:03;7.20;99.90
31661;DHT22;18267;52.234;7.444;2024-02-26T15:17:29;7.20;99.90
31661;DHT22;18267;52.234;7.444;2024-02-26T15:19:57;7.20;99.90
31661;DHT22;18267;52.234;7.444;2024-02-26T15:22:24;7.20;99.90
31661;DHT22;18267;52.234;7.444;2024-02-26T15:24:50;7.20;99.90
31661;DHT22;18267;52.234;7.444;2024-02-26T15:27:15;7.30;99.90
31661;DHT22;18267;52.234;7.444;2024-02-26T15:29:42;7.30;99.90
31661;DHT22;18267;52.234;7.444;2024-02-26T15:32:07;7.20;99.90
31661;DHT22;18267;52.234;7.444;2024-02-26T15:34:33;7.30;99.90
31661;DHT22;18267;52.234;7.444;2024-02-26T15:36:59;7.30;99.90
31661;DHT22;18267;52.234;7.444;2024-02-26T15:39:24;7.30;99.90
31661;DHT22;18267;52.234;7.444;2024-02-26T15:41:50;7.30;99.90
31661;DHT22;18267;52.234;7.444;2024-02-26T15:44:15;7.30;99.90